sensor_id;sensor_type;location;lat;lon;timestamp;temperature;humidity
18281;DHT22;9266;51.132;17.062;2023-06-19T00:00:00;16.10;1.00
18281;DHT22;9266;51.132;17.062;2023-06-19T00:02:32;16.10;99.90
18281;DHT22;9266;51.132;17.062;2023-06-19T00:04:59;16.20;35.70
18281;DHT22;9266;51.132;17.062;2023-06-19T00:07:26;16.10;1.00
18281;DHT22;9266;51.132;17.062;2023-06-19T00:09:55;15.90;1.00
18281;DHT22;9266;51.132;17.062;2023-06-19T00:12:22;15.80;1.00
18281;DHT22;9266;51.132;17.062;2023-06-19T00:14:49;15.80;8.90
18281;DHT22;9266;51.132;17.062;2023-06-19T00:17:16;15.70;99.90
18281;DHT22;9266;51.132;17.062;2023-06-19T00:19:43;15.80;99.90
18281;DHT22;9266;51.132;17.062;2023-06-19T00:22:10;15.70;99.90
18281;DHT22;9266;51.132;17.062;2023-06-19T00:24:37;15.70;1.00
18281;DHT22;9266;51.132;17.062;2023-06-19T00:27:06;15.70;1.00
18281;DHT22;9266;51.132;17.062;2023-06-19T00:29:34;15.70;1.00
18281;DHT22;9266;51.132;17.062;2023-06-19T00:32:01;15.60;1.00
18281;DHT22;9266;51.132;17.062;2023-06-19T00:34:29;15.60;1.00
18281;DHT22;9266;51.132;17.062;2023-06-19T00:36:57;15.60;99.90
18281;DHT22;9266;51.132;17.062;2023-06-19T00:39:25;15.50;99.90
18281;DHT22;9266;51.132;17.062;2023-06-19T00:41:53;15.40;99.90
18281;DHT22;9266;51.132;17.062;2023-06-19T00:44:22;15.40;99.90
18281;DHT22;9266;51.132;17.062;2023-06-19T00:46:51;15.50;94.70
18281;DHT22;9266;51.132;17.062;2023-06-19T00:49:21;15.50;1.00
18281;DHT22;9266;51.132;17.062;2023-06-19T00:51:48;15.40;20.50
18281;DHT22;9266;51.132;17.062;2023-06-19T00:54:15;15.30;61.30
18281;DHT22;9266;51.132;17.062;2023-06-19T00:56:43;15.20;99.90
18281;DHT22;9266;51.132;17.062;2023-06-19T00:59:15;15.10;1.00
18281;DHT22;9266;51.132;17.062;2023-06-19T01:01:45;15.10;1.00
18281;DHT22;9266;51.132;17.062;2023-06-19T01:04:12;15.10;1.00
18281;DHT22;9266;51.132;17.062;2023-06-19T01:06:46;15.10;1.00
18281;DHT22;9266;51.132;17.062;2023-06-19T01:09:19;15.10;1.00
18281;DHT22;9266;51.132;17.062;2023-06-19T01:11:51;15.10;1.00
18281;DHT22;9266;51.132;17.062;2023-06-19T01:14:23;15.10;1.00
18281;DHT22;9266;51.132;17.062;2023-06-19T01:16:53;15.20;1.00
18281;DHT22;9266;51.132;17.062;2023-06-19T01:19:20;15.20;1.00
18281;DHT22;9266;51.132;17.062;2023-06-19T01:21:49;15.20;99.90
18281;DHT22;9266;51.132;17.062;2023-06-19T01:24:17;15.30;99.90
18281;DHT22;9266;51.132;17.062;2023-06-19T01:26:44;15.30;1.80
18281;DHT22;9266;51.132;17.062;2023-06-19T01:29:13;15.20;75.60
18281;DHT22;9266;51.132;17.062;2023-06-19T01:31:46;15.10;99.90
18281;DHT22;9266;51.132;17.062;2023-06-19T01:34:17;15.20;99.90
18281;DHT22;9266;51.132;17.062;2023-06-19T01:36:47;15.20;99.90
18281;DHT22;9266;51.132;17.062;2023-06-19T01:39:17;15.20;1.00
18281;DHT22;9266;51.132;17.062;2023-06-19T01:41:45;15.20;1.00
18281;DHT22;9266;51.132;17.062;2023-06-19T01:44:13;15.10;1.00
18281;DHT22;9266;51.132;17.062;2023-06-19T01:46:40;15.00;1.00
18281;DHT22;9266;51.132;17.062;2023-06-19T01:49:07;14.90;1.00
18281;DHT22;9266;51.132;17.062;2023-06-19T01:51:35;14.90;1.00
18281;DHT22;9266;51.132;17.062;2023-06-19T01:54:02;15.00;5.90
18281;DHT22;9266;51.132;17.062;2023-06-19T01:56:32;14.90;10.70
18281;DHT22;9266;51.132;17.062;2023-06-19T01:58:59;14.70;60.70
18281;DHT22;9266;51.132;17.062;2023-06-19T02:01:26;14.70;99.90
18281;DHT22;9266;51.132;17.062;2023-06-19T02:03:53;14.60;99.90
18281;DHT22;9266;51.132;17.062;2023-06-19T02:06:20;14.60;99.90
18281;DHT22;9266;51.132;17.062;2023-06-19T02:08:48;14.60;99.90
18281;DHT22;9266;51.132;17.062;2023-06-19T02:11:15;14.50;99.90
18281;DHT22;9266;51.132;17.062;2023-06-19T02:13:43;14.50;99.90
18281;DHT22;9266;51.132;17.062;2023-06-19T02:16:10;14.40;99.90
18281;DHT22;9266;51.132;17.062;2023-06-19T02:18:37;14.50;99.90
18281;DHT22;9266;51.132;17.062;2023-06-19T02:21:04;14.50;99.90
18281;DHT22;9266;51.132;17.062;2023-06-19T02:23:31;14.40;99.90
18281;DHT22;9266;51.132;17.062;2023-06-19T02:25:58;14.40;99.90
18281;DHT22;9266;51.132;17.062;2023-06-19T02:28:25;14.40;99.90
18281;DHT22;9266;51.132;17.062;2023-06-19T02:30:54;14.30;99.90
18281;DHT22;9266;51.132;17.062;2023-06-19T02:33:21;14.30;99.90
18281;DHT22;9266;51.132;17.062;2023-06-19T02:35:48;14.20;99.90
18281;DHT22;9266;51.132;17.062;2023-06-19T02:38:15;14.20;99.90
18281;DHT22;9266;51.132;17.062;2023-06-19T02:40:44;14.10;99.90
18281;DHT22;9266;51.132;17.062;2023-06-19T02:43:11;14.20;99.90
18281;DHT22;9266;51.132;17.062;2023-06-19T02:45:38;14.20;99.90
18281;DHT22;9266;51.132;17.062;2023-06-19T02:48:06;14.40;99.90
18281;DHT22;9266;51.132;17.062;2023-06-19T02:50:33;14.50;99.90
18281;DHT22;9266;51.132;17.062;2023-06-19T02:53:00;14.50;99.90
18281;DHT22;9266;51.132;17.062;2023-06-19T02:55:27;14.50;99.90
18281;DHT22;9266;51.132;17.062;2023-06-19T02:57:54;14.50;99.90
18281;DHT22;9266;51.132;17.062;2023-06-19T03:00:22;14.50;99.90
18281;DHT22;9266;51.132;17.062;2023-06-19T03:02:49;14.60;99.90
18281;DHT22;9266;51.132;17.062;2023-06-19T03:05:18;14.60;99.90
18281;DHT22;9266;51.132;17.062;2023-06-19T03:07:45;14.90;99.90
18281;DHT22;9266;51.132;17.062;2023-06-19T03:10:12;15.10;99.90
18281;DHT22;9266;51.132;17.062;2023-06-19T03:12:39;15.50;99.90
18281;DHT22;9266;51.132;17.062;2023-06-19T03:15:07;15.80;99.90
18281;DHT22;9266;51.132;17.062;2023-06-19T03:17:34;16.00;99.90
18281;DHT22;9266;51.132;17.062;2023-06-19T03:20:00;16.40;99.90
18281;DHT22;9266;51.132;17.062;2023-06-19T03:22:29;16.80;96.40
18281;DHT22;9266;51.132;17.062;2023-06-19T03:24:56;17.00;1.00
18281;DHT22;9266;51.132;17.062;2023-06-19T03:27:23;17.30;30.00
18281;DHT22;9266;51.132;17.062;2023-06-19T03:29:50;17.50;1.00
18281;DHT22;9266;51.132;17.062;2023-06-19T03:32:17;17.40;1.00
18281;DHT22;9266;51.132;17.062;2023-06-19T03:34:44;17.80;39.20
18281;DHT22;9266;51.132;17.062;2023-06-19T03:37:11;18.00;1.00
18281;DHT22;9266;51.132;17.062;2023-06-19T03:39:40;18.30;88.90
18281;DHT22;9266;51.132;17.062;2023-06-19T03:42:07;18.60;1.00
18281;DHT22;9266;51.132;17.062;2023-06-19T03:44:34;18.80;99.90
18281;DHT22;9266;51.132;17.062;2023-06-19T03:47:01;19.20;54.90
18281;DHT22;9266;51.132;17.062;2023-06-19T03:49:28;19.60;78.70
18281;DHT22;9266;51.132;17.062;2023-06-19T03:51:55;19.60;83.90
18281;DHT22;9266;51.132;17.062;2023-06-19T03:54:22;20.10;1.00
18281;DHT22;9266;51.132;17.062;2023-06-19T03:56:51;20.50;1.00
18281;DHT22;9266;51.132;17.062;2023-06-19T03:59:18;20.70;99.90
18281;DHT22;9266;51.132;17.062;2023-06-19T04:01:45;20.90;99.90
18281;DHT22;9266;51.132;17.062;2023-06-19T04:04:12;21.40;99.90
18281;DHT22;9266;51.132;17.062;2023-06-19T04:06:39;21.20;99.90
18281;DHT22;9266;51.132;17.062;2023-06-19T04:09:06;21.80;99.90
18281;DHT22;9266;51.132;17.062;2023-06-19T04:11:33;22.40;39.20
18281;DHT22;9266;51.132;17.062;2023-06-19T04:14:02;22.50;13.30
18281;DHT22;9266;51.132;17.062;2023-06-19T04:16:29;22.50;1.00
18281;DHT22;9266;51.132;17.062;2023-06-19T04:18:56;22.50;1.00
18281;DHT22;9266;51.132;17.062;2023-06-19T04:21:23;23.40;1.00
18281;DHT22;9266;51.132;17.062;2023-06-19T04:23:50;23.50;1.00
18281;DHT22;9266;51.132;17.062;2023-06-19T04:26:17;23.70;1.00
18281;DHT22;9266;51.132;17.062;2023-06-19T04:28:44;24.30;3.90
18281;DHT22;9266;51.132;17.062;2023-06-19T04:31:12;24.20;1.00
18281;DHT22;9266;51.132;17.062;2023-06-19T04:33:43;24.60;1.00
18281;DHT22;9266;51.132;17.062;2023-06-19T04:36:10;24.10;1.00
18281;DHT22;9266;51.132;17.062;2023-06-19T04:38:37;23.10;1.00
18281;DHT22;9266;51.132;17.062;2023-06-19T04:41:04;22.20;1.00
18281;DHT22;9266;51.132;17.062;2023-06-19T04:43:31;21.40;20.90
18281;DHT22;9266;51.132;17.062;2023-06-19T04:45:59;21.00;99.90
18281;DHT22;9266;51.132;17.062;2023-06-19T04:48:27;21.20;91.60
18281;DHT22;9266;51.132;17.062;2023-06-19T04:50:55;21.20;96.00
18281;DHT22;9266;51.132;17.062;2023-06-19T04:53:22;20.80;99.90
18281;DHT22;9266;51.132;17.062;2023-06-19T04:55:49;20.10;1.00
18281;DHT22;9266;51.132;17.062;2023-06-19T04:58:16;20.00;1.00
18281;DHT22;9266;51.132;17.062;2023-06-19T05:00:43;19.90;1.00
18281;DHT22;9266;51.132;17.062;2023-06-19T05:03:10;20.20;1.00
18281;DHT22;9266;51.132;17.062;2023-06-19T05:05:40;20.30;99.90
18281;DHT22;9266;51.132;17.062;2023-06-19T05:08:07;20.30;1.00
18281;DHT22;9266;51.132;17.062;2023-06-19T05:10:34;20.50;99.90
18281;DHT22;9266;51.132;17.062;2023-06-19T05:13:01;20.60;99.90
18281;DHT22;9266;51.132;17.062;2023-06-19T05:15:29;20.50;99.90
18281;DHT22;9266;51.132;17.062;2023-06-19T05:17:56;20.70;99.90
18281;DHT22;9266;51.132;17.062;2023-06-19T05:20:23;20.70;99.90
18281;DHT22;9266;51.132;17.062;2023-06-19T05:22:51;20.40;1.00
18281;DHT22;9266;51.132;17.062;2023-06-19T05:25:18;20.60;99.90
18281;DHT22;9266;51.132;17.062;2023-06-19T05:27:45;20.90;99.90
18281;DHT22;9266;51.132;17.062;2023-06-19T05:30:12;21.20;99.90
18281;DHT22;9266;51.132;17.062;2023-06-19T05:32:39;21.80;99.90
18281;DHT22;9266;51.132;17.062;2023-06-19T05:35:07;22.60;62.20
18281;DHT22;9266;51.132;17.062;2023-06-19T05:37:34;22.90;24.80
18281;DHT22;9266;51.132;17.062;2023-06-19T05:40:03;23.50;1.00
18281;DHT22;9266;51.132;17.062;2023-06-19T05:42:31;23.50;1.00
18281;DHT22;9266;51.132;17.062;2023-06-19T05:44:58;22.80;1.00
18281;DHT22;9266;51.132;17.062;2023-06-19T05:47:25;22.30;39.50
18281;DHT22;9266;51.132;17.062;2023-06-19T05:49:52;22.30;71.70
18281;DHT22;9266;51.132;17.062;2023-06-19T05:52:19;22.90;6.20
18281;DHT22;9266;51.132;17.062;2023-06-19T05:54:47;23.60;1.00
18281;DHT22;9266;51.132;17.062;2023-06-19T05:57:15;25.50;99.90
18281;DHT22;9266;51.132;17.062;2023-06-19T05:59:46;28.20;56.60
18281;DHT22;9266;51.132;17.062;2023-06-19T06:02:13;28.50;10.40
18281;DHT22;9266;51.132;17.062;2023-06-19T06:04:41;27.60;7.80
18281;DHT22;9266;51.132;17.062;2023-06-19T06:07:08;27.50;1.00
18281;DHT22;9266;51.132;17.062;2023-06-19T06:09:35;26.40;10.20
18281;DHT22;9266;51.132;17.062;2023-06-19T06:12:02;26.10;8.60
18281;DHT22;9266;51.132;17.062;2023-06-19T06:14:30;26.90;2.30
18281;DHT22;9266;51.132;17.062;2023-06-19T06:16:57;28.00;1.00
18281;DHT22;9266;51.132;17.062;2023-06-19T06:19:25;30.10;1.00
18281;DHT22;9266;51.132;17.062;2023-06-19T06:21:52;30.50;1.00
18281;DHT22;9266;51.132;17.062;2023-06-19T06:24:18;29.70;1.00
18281;DHT22;9266;51.132;17.062;2023-06-19T06:26:45;28.70;1.00
18281;DHT22;9266;51.132;17.062;2023-06-19T06:29:12;28.10;1.00
18281;DHT22;9266;51.132;17.062;2023-06-19T06:31:41;27.00;1.00
18281;DHT22;9266;51.132;17.062;2023-06-19T06:34:08;25.30;1.00
18281;DHT22;9266;51.132;17.062;2023-06-19T06:36:35;26.30;1.00
18281;DHT22;9266;51.132;17.062;2023-06-19T06:39:02;26.40;1.00
18281;DHT22;9266;51.132;17.062;2023-06-19T06:41:29;26.10;1.00
18281;DHT22;9266;51.132;17.062;2023-06-19T06:43:56;26.40;1.00
18281;DHT22;9266;51.132;17.062;2023-06-19T06:46:23;25.90;1.00
18281;DHT22;9266;51.132;17.062;2023-06-19T06:48:51;25.70;1.00
18281;DHT22;9266;51.132;17.062;2023-06-19T06:51:18;26.00;1.00
18281;DHT22;9266;51.132;17.062;2023-06-19T06:53:45;25.30;1.00
18281;DHT22;9266;51.132;17.062;2023-06-19T06:56:12;24.40;13.30
18281;DHT22;9266;51.132;17.062;2023-06-19T06:58:39;24.70;30.00
18281;DHT22;9266;51.132;17.062;2023-06-19T07:01:06;25.00;18.10
18281;DHT22;9266;51.132;17.062;2023-06-19T07:03:33;24.90;22.00
18281;DHT22;9266;51.132;17.062;2023-06-19T07:06:02;25.00;24.60
18281;DHT22;9266;51.132;17.062;2023-06-19T07:08:29;24.70;45.80
18281;DHT22;9266;51.132;17.062;2023-06-19T07:10:56;25.20;28.40
18281;DHT22;9266;51.132;17.062;2023-06-19T07:13:23;25.50;18.60
18281;DHT22;9266;51.132;17.062;2023-06-19T07:15:50;24.90;30.20
18281;DHT22;9266;51.132;17.062;2023-06-19T07:18:17;25.10;31.70
18281;DHT22;9266;51.132;17.062;2023-06-19T07:20:44;25.00;32.30
18281;DHT22;9266;51.132;17.062;2023-06-19T07:23:12;25.60;16.60
18281;DHT22;9266;51.132;17.062;2023-06-19T07:25:39;26.20;6.30
18281;DHT22;9266;51.132;17.062;2023-06-19T07:28:06;26.30;1.20
18281;DHT22;9266;51.132;17.062;2023-06-19T07:30:33;26.80;1.00
18281;DHT22;9266;51.132;17.062;2023-06-19T07:33:00;27.20;1.00
18281;DHT22;9266;51.132;17.062;2023-06-19T07:35:27;27.40;1.00
18281;DHT22;9266;51.132;17.062;2023-06-19T07:37:54;28.00;1.00
18281;DHT22;9266;51.132;17.062;2023-06-19T07:40:22;27.70;1.00
18281;DHT22;9266;51.132;17.062;2023-06-19T07:42:49;28.00;1.00
18281;DHT22;9266;51.132;17.062;2023-06-19T07:45:16;28.10;1.00
18281;DHT22;9266;51.132;17.062;2023-06-19T07:47:43;27.80;1.00
18281;DHT22;9266;51.132;17.062;2023-06-19T07:50:10;27.90;1.00
18281;DHT22;9266;51.132;17.062;2023-06-19T07:52:37;27.80;1.00
18281;DHT22;9266;51.132;17.062;2023-06-19T07:55:05;28.20;1.00
18281;DHT22;9266;51.132;17.062;2023-06-19T07:57:33;28.00;1.00
18281;DHT22;9266;51.132;17.062;2023-06-19T08:00:02;28.00;1.00
18281;DHT22;9266;51.132;17.062;2023-06-19T08:02:32;27.90;1.00
18281;DHT22;9266;51.132;17.062;2023-06-19T08:04:59;28.30;1.00
18281;DHT22;9266;51.132;17.062;2023-06-19T08:07:26;28.80;1.00
18281;DHT22;9266;51.132;17.062;2023-06-19T08:09:53;28.40;1.00
18281;DHT22;9266;51.132;17.062;2023-06-19T08:12:20;28.10;1.00
18281;DHT22;9266;51.132;17.062;2023-06-19T08:14:49;27.90;1.00
18281;DHT22;9266;51.132;17.062;2023-06-19T08:17:16;28.50;1.00
18281;DHT22;9266;51.132;17.062;2023-06-19T08:19:43;28.90;1.00
18281;DHT22;9266;51.132;17.062;2023-06-19T08:22:10;29.00;1.00
18281;DHT22;9266;51.132;17.062;2023-06-19T08:24:37;29.30;1.00
18281;DHT22;9266;51.132;17.062;2023-06-19T08:27:06;29.50;1.00
18281;DHT22;9266;51.132;17.062;2023-06-19T08:29:33;29.80;1.00
18281;DHT22;9266;51.132;17.062;2023-06-19T08:32:01;30.10;1.00
18281;DHT22;9266;51.132;17.062;2023-06-19T08:34:28;30.30;1.00
18281;DHT22;9266;51.132;17.062;2023-06-19T08:36:56;30.30;1.00
18281;DHT22;9266;51.132;17.062;2023-06-19T08:39:23;29.80;1.00
18281;DHT22;9266;51.132;17.062;2023-06-19T08:41:50;29.50;1.00
18281;DHT22;9266;51.132;17.062;2023-06-19T08:44:18;30.10;1.00
18281;DHT22;9266;51.132;17.062;2023-06-19T08:46:45;30.20;1.00
18281;DHT22;9266;51.132;17.062;2023-06-19T08:49:14;30.40;1.00
18281;DHT22;9266;51.132;17.062;2023-06-19T08:51:41;30.10;1.00
18281;DHT22;9266;51.132;17.062;2023-06-19T08:54:08;29.50;1.00
18281;DHT22;9266;51.132;17.062;2023-06-19T08:56:35;29.20;1.00
18281;DHT22;9266;51.132;17.062;2023-06-19T08:59:10;28.90;1.00
18281;DHT22;9266;51.132;17.062;2023-06-19T09:01:37;29.10;1.00
18281;DHT22;9266;51.132;17.062;2023-06-19T09:04:09;29.00;1.00
18281;DHT22;9266;51.132;17.062;2023-06-19T09:06:46;30.10;1.00
18281;DHT22;9266;51.132;17.062;2023-06-19T09:09:13;31.00;1.00
18281;DHT22;9266;51.132;17.062;2023-06-19T09:11:40;32.40;1.00
18281;DHT22;9266;51.132;17.062;2023-06-19T09:14:10;33.10;1.00
18281;DHT22;9266;51.132;17.062;2023-06-19T09:16:38;32.30;1.00
18281;DHT22;9266;51.132;17.062;2023-06-19T09:19:05;31.40;1.00
18281;DHT22;9266;51.132;17.062;2023-06-19T09:21:36;31.00;1.00
18281;DHT22;9266;51.132;17.062;2023-06-19T09:24:06;30.50;1.00
18281;DHT22;9266;51.132;17.062;2023-06-19T09:26:33;30.00;1.00
18281;DHT22;9266;51.132;17.062;2023-06-19T09:29:11;29.90;1.00
18281;DHT22;9266;51.132;17.062;2023-06-19T09:31:38;30.40;1.00
18281;DHT22;9266;51.132;17.062;2023-06-19T09:34:07;30.70;1.00
18281;DHT22;9266;51.132;17.062;2023-06-19T09:36:35;30.60;1.00
18281;DHT22;9266;51.132;17.062;2023-06-19T09:39:04;30.50;1.00
18281;DHT22;9266;51.132;17.062;2023-06-19T09:41:32;30.40;1.00
18281;DHT22;9266;51.132;17.062;2023-06-19T09:44:02;30.20;1.00
18281;DHT22;9266;51.132;17.062;2023-06-19T09:46:38;29.50;1.00
18281;DHT22;9266;51.132;17.062;2023-06-19T09:49:08;29.50;1.00
18281;DHT22;9266;51.132;17.062;2023-06-19T09:51:38;28.80;1.00
18281;DHT22;9266;51.132;17.062;2023-06-19T09:54:09;28.00;1.00
18281;DHT22;9266;51.132;17.062;2023-06-19T09:56:37;28.20;1.00
18281;DHT22;9266;51.132;17.062;2023-06-19T09:59:04;28.20;1.00
18281;DHT22;9266;51.132;17.062;2023-06-19T10:01:35;28.40;1.00
18281;DHT22;9266;51.132;17.062;2023-06-19T10:04:04;28.30;1.00
18281;DHT22;9266;51.132;17.062;2023-06-19T10:06:31;28.20;1.00
18281;DHT22;9266;51.132;17.062;2023-06-19T10:09:07;28.20;1.00
18281;DHT22;9266;51.132;17.062;2023-06-19T10:11:49;28.00;1.00
18281;DHT22;9266;51.132;17.062;2023-06-19T10:14:18;28.20;1.00
18281;DHT22;9266;51.132;17.062;2023-06-19T10:16:45;28.20;1.00
18281;DHT22;9266;51.132;17.062;2023-06-19T10:19:14;28.20;1.00
18281;DHT22;9266;51.132;17.062;2023-06-19T10:21:46;28.40;1.00
18281;DHT22;9266;51.132;17.062;2023-06-19T10:24:16;28.70;1.00
18281;DHT22;9266;51.132;17.062;2023-06-19T10:26:58;28.90;1.00
18281;DHT22;9266;51.132;17.062;2023-06-19T10:29:25;28.80;1.00
18281;DHT22;9266;51.132;17.062;2023-06-19T10:31:53;28.90;1.00
18281;DHT22;9266;51.132;17.062;2023-06-19T10:34:22;29.20;1.00
18281;DHT22;9266;51.132;17.062;2023-06-19T10:36:59;29.40;1.00
18281;DHT22;9266;51.132;17.062;2023-06-19T10:39:26;29.90;1.00
18281;DHT22;9266;51.132;17.062;2023-06-19T10:41:53;29.30;1.00
18281;DHT22;9266;51.132;17.062;2023-06-19T10:44:23;29.80;1.00
18281;DHT22;9266;51.132;17.062;2023-06-19T10:46:52;29.30;1.00
18281;DHT22;9266;51.132;17.062;2023-06-19T10:49:21;29.20;1.00
18281;DHT22;9266;51.132;17.062;2023-06-19T10:51:48;29.30;1.00
18281;DHT22;9266;51.132;17.062;2023-06-19T10:54:15;29.60;1.00
18281;DHT22;9266;51.132;17.062;2023-06-19T10:56:42;29.70;1.00
18281;DHT22;9266;51.132;17.062;2023-06-19T10:59:10;29.30;1.00
18281;DHT22;9266;51.132;17.062;2023-06-19T11:01:42;29.70;1.00
18281;DHT22;9266;51.132;17.062;2023-06-19T11:04:10;29.30;1.00
18281;DHT22;9266;51.132;17.062;2023-06-19T11:06:39;29.50;1.00
18281;DHT22;9266;51.132;17.062;2023-06-19T11:09:07;30.10;1.00
18281;DHT22;9266;51.132;17.062;2023-06-19T11:11:35;30.40;1.00
18281;DHT22;9266;51.132;17.062;2023-06-19T11:14:03;30.90;1.00
18281;DHT22;9266;51.132;17.062;2023-06-19T11:16:30;31.10;1.00
18281;DHT22;9266;51.132;17.062;2023-06-19T11:19:00;31.40;1.00
18281;DHT22;9266;51.132;17.062;2023-06-19T11:21:30;30.80;1.00
18281;DHT22;9266;51.132;17.062;2023-06-19T11:23:58;30.10;1.00
18281;DHT22;9266;51.132;17.062;2023-06-19T11:26:26;29.90;1.00
18281;DHT22;9266;51.132;17.062;2023-06-19T11:28:53;29.20;1.00
18281;DHT22;9266;51.132;17.062;2023-06-19T11:31:25;29.70;1.00
18281;DHT22;9266;51.132;17.062;2023-06-19T11:34:00;30.10;1.00
18281;DHT22;9266;51.132;17.062;2023-06-19T11:36:27;30.40;1.00
18281;DHT22;9266;51.132;17.062;2023-06-19T11:38:55;30.90;1.00
18281;DHT22;9266;51.132;17.062;2023-06-19T11:41:25;31.20;1.00
18281;DHT22;9266;51.132;17.062;2023-06-19T11:43:58;31.70;1.00
18281;DHT22;9266;51.132;17.062;2023-06-19T11:46:29;32.10;1.00
18281;DHT22;9266;51.132;17.062;2023-06-19T11:49:07;31.00;1.00
18281;DHT22;9266;51.132;17.062;2023-06-19T11:51:35;30.70;1.00
18281;DHT22;9266;51.132;17.062;2023-06-19T11:54:03;30.10;1.00
18281;DHT22;9266;51.132;17.062;2023-06-19T11:56:30;30.30;1.00
18281;DHT22;9266;51.132;17.062;2023-06-19T11:58:57;30.30;1.00
18281;DHT22;9266;51.132;17.062;2023-06-19T12:01:24;30.30;1.00
18281;DHT22;9266;51.132;17.062;2023-06-19T12:03:51;30.60;1.00
18281;DHT22;9266;51.132;17.062;2023-06-19T12:06:20;30.90;1.00
18281;DHT22;9266;51.132;17.062;2023-06-19T12:08:47;31.00;1.00
18281;DHT22;9266;51.132;17.062;2023-06-19T12:11:14;30.70;1.00
18281;DHT22;9266;51.132;17.062;2023-06-19T12:13:41;30.80;1.00
18281;DHT22;9266;51.132;17.062;2023-06-19T12:16:10;30.70;1.00
18281;DHT22;9266;51.132;17.062;2023-06-19T12:18:37;30.40;1.00
18281;DHT22;9266;51.132;17.062;2023-06-19T12:21:04;30.40;1.00
18281;DHT22;9266;51.132;17.062;2023-06-19T12:23:33;29.90;1.00
18281;DHT22;9266;51.132;17.062;2023-06-19T12:26:00;30.40;1.00
18281;DHT22;9266;51.132;17.062;2023-06-19T12:28:27;30.40;1.00
18281;DHT22;9266;51.132;17.062;2023-06-19T12:30:54;30.30;1.00
18281;DHT22;9266;51.132;17.062;2023-06-19T12:33:22;30.10;1.00
18281;DHT22;9266;51.132;17.062;2023-06-19T12:35:49;29.80;1.00
18281;DHT22;9266;51.132;17.062;2023-06-19T12:38:16;30.20;1.00
18281;DHT22;9266;51.132;17.062;2023-06-19T12:40:45;30.50;1.00
18281;DHT22;9266;51.132;17.062;2023-06-19T12:43:12;30.70;1.00
18281;DHT22;9266;51.132;17.062;2023-06-19T12:45:39;30.60;1.00
18281;DHT22;9266;51.132;17.062;2023-06-19T12:48:06;30.70;1.00
18281;DHT22;9266;51.132;17.062;2023-06-19T12:50:33;30.60;1.00
18281;DHT22;9266;51.132;17.062;2023-06-19T12:53:00;30.50;1.00
18281;DHT22;9266;51.132;17.062;2023-06-19T12:55:28;30.70;1.00
18281;DHT22;9266;51.132;17.062;2023-06-19T12:57:56;30.10;1.00
18281;DHT22;9266;51.132;17.062;2023-06-19T13:00:23;30.10;1.00
18281;DHT22;9266;51.132;17.062;2023-06-19T13:02:50;30.30;1.00
18281;DHT22;9266;51.132;17.062;2023-06-19T13:05:17;30.60;1.00
18281;DHT22;9266;51.132;17.062;2023-06-19T13:07:44;30.60;1.00
18281;DHT22;9266;51.132;17.062;2023-06-19T13:10:11;30.70;1.00
18281;DHT22;9266;51.132;17.062;2023-06-19T13:12:38;30.70;1.00
18281;DHT22;9266;51.132;17.062;2023-06-19T13:15:08;30.30;1.00
18281;DHT22;9266;51.132;17.062;2023-06-19T13:17:35;30.40;1.00
18281;DHT22;9266;51.132;17.062;2023-06-19T13:20:02;30.60;1.00
18281;DHT22;9266;51.132;17.062;2023-06-19T13:22:31;31.00;1.00
18281;DHT22;9266;51.132;17.062;2023-06-19T13:24:58;31.30;1.00
18281;DHT22;9266;51.132;17.062;2023-06-19T13:27:25;31.10;1.00
18281;DHT22;9266;51.132;17.062;2023-06-19T13:29:53;30.60;1.00
18281;DHT22;9266;51.132;17.062;2023-06-19T13:32:22;30.50;1.00
18281;DHT22;9266;51.132;17.062;2023-06-19T13:34:49;30.40;1.00
18281;DHT22;9266;51.132;17.062;2023-06-19T13:37:16;31.00;1.00
18281;DHT22;9266;51.132;17.062;2023-06-19T13:39:43;31.50;1.00
18281;DHT22;9266;51.132;17.062;2023-06-19T13:42:09;31.60;1.00
18281;DHT22;9266;51.132;17.062;2023-06-19T13:44:37;31.30;1.00
18281;DHT22;9266;51.132;17.062;2023-06-19T13:47:05;31.20;1.00
18281;DHT22;9266;51.132;17.062;2023-06-19T13:49:33;30.90;1.00
18281;DHT22;9266;51.132;17.062;2023-06-19T13:52:00;30.50;1.00
18281;DHT22;9266;51.132;17.062;2023-06-19T13:54:27;30.30;1.00
18281;DHT22;9266;51.132;17.062;2023-06-19T13:56:54;30.10;1.00
18281;DHT22;9266;51.132;17.062;2023-06-19T13:59:21;30.20;1.00
18281;DHT22;9266;51.132;17.062;2023-06-19T14:01:48;29.80;1.00
18281;DHT22;9266;51.132;17.062;2023-06-19T14:04:15;29.90;1.00
18281;DHT22;9266;51.132;17.062;2023-06-19T14:06:44;29.80;1.00
18281;DHT22;9266;51.132;17.062;2023-06-19T14:09:11;29.30;1.00
18281;DHT22;9266;51.132;17.062;2023-06-19T14:11:38;29.50;1.00
18281;DHT22;9266;51.132;17.062;2023-06-19T14:14:05;29.70;1.00
18281;DHT22;9266;51.132;17.062;2023-06-19T14:16:33;29.90;1.00
18281;DHT22;9266;51.132;17.062;2023-06-19T14:19:00;29.90;1.00
18281;DHT22;9266;51.132;17.062;2023-06-19T14:21:27;29.80;1.00
18281;DHT22;9266;51.132;17.062;2023-06-19T14:23:56;29.60;1.00
18281;DHT22;9266;51.132;17.062;2023-06-19T14:26:22;29.80;1.00
18281;DHT22;9266;51.132;17.062;2023-06-19T14:28:49;29.80;1.00
18281;DHT22;9266;51.132;17.062;2023-06-19T14:31:20;30.10;1.00
18281;DHT22;9266;51.132;17.062;2023-06-19T14:33:47;30.20;1.00
18281;DHT22;9266;51.132;17.062;2023-06-19T14:36:14;30.50;1.00
18281;DHT22;9266;51.132;17.062;2023-06-19T14:38:41;30.80;1.00
18281;DHT22;9266;51.132;17.062;2023-06-19T14:41:10;30.90;1.00
18281;DHT22;9266;51.132;17.062;2023-06-19T14:43:37;31.20;1.00
18281;DHT22;9266;51.132;17.062;2023-06-19T14:46:03;31.10;1.00
18281;DHT22;9266;51.132;17.062;2023-06-19T14:48:30;30.70;1.00
18281;DHT22;9266;51.132;17.062;2023-06-19T14:50:58;30.20;1.00
18281;DHT22;9266;51.132;17.062;2023-06-19T14:53:25;30.20;1.00
18281;DHT22;9266;51.132;17.062;2023-06-19T14:55:51;30.50;1.00
18281;DHT22;9266;51.132;17.062;2023-06-19T14:58:20;30.50;1.00
18281;DHT22;9266;51.132;17.062;2023-06-19T15:00:47;30.40;1.00
18281;DHT22;9266;51.132;17.062;2023-06-19T15:03:14;30.10;1.00
18281;DHT22;9266;51.132;17.062;2023-06-19T15:05:41;30.10;1.00
18281;DHT22;9266;51.132;17.062;2023-06-19T15:08:08;30.20;1.00
18281;DHT22;9266;51.132;17.062;2023-06-19T15:10:36;30.10;1.00
18281;DHT22;9266;51.132;17.062;2023-06-19T15:13:03;30.10;1.00
18281;DHT22;9266;51.132;17.062;2023-06-19T15:15:31;30.00;1.00
18281;DHT22;9266;51.132;17.062;2023-06-19T15:17:58;30.10;1.00
18281;DHT22;9266;51.132;17.062;2023-06-19T15:20:26;30.20;1.00
18281;DHT22;9266;51.132;17.062;2023-06-19T15:22:53;29.90;1.00
18281;DHT22;9266;51.132;17.062;2023-06-19T15:25:20;30.00;1.00
18281;DHT22;9266;51.132;17.062;2023-06-19T15:27:47;30.00;1.00
18281;DHT22;9266;51.132;17.062;2023-06-19T15:30:14;29.90;1.00
18281;DHT22;9266;51.132;17.062;2023-06-19T15:32:43;29.90;1.00
18281;DHT22;9266;51.132;17.062;2023-06-19T15:35:10;29.90;1.00
18281;DHT22;9266;51.132;17.062;2023-06-19T15:37:37;29.90;1.00
18281;DHT22;9266;51.132;17.062;2023-06-19T15:40:04;29.80;1.00
18281;DHT22;9266;51.132;17.062;2023-06-19T15:42:31;29.60;1.00
18281;DHT22;9266;51.132;17.062;2023-06-19T15:44:59;29.60;1.00